sensor_id;sensor_type;location;lat;lon;timestamp;P1;durP1;ratioP1;P2;durP2;ratioP2
8399;SDS011;4237;47.030;15.396;2023-07-29T00:02:14;4.80;;;2.00;;
8399;SDS011;4237;47.030;15.396;2023-07-29T00:04:43;2.10;;;1.70;;
8399;SDS011;4237;47.030;15.396;2023-07-29T00:07:11;2.43;;;1.90;;
8399;SDS011;4237;47.030;15.396;2023-07-29T00:09:39;1.73;;;1.57;;
8399;SDS011;4237;47.030;15.396;2023-07-29T00:12:07;2.83;;;1.57;;
8399;SDS011;4237;47.030;15.396;2023-07-29T00:14:35;1.60;;;1.30;;
8399;SDS011;4237;47.030;15.396;2023-07-29T00:17:04;3.17;;;1.70;;
8399;SDS011;4237;47.030;15.396;2023-07-29T00:19:32;2.07;;;1.60;;
8399;SDS011;4237;47.030;15.396;2023-07-29T00:22:01;2.97;;;1.80;;
8399;SDS011;4237;47.030;15.396;2023-07-29T00:24:29;2.47;;;1.50;;
8399;SDS011;4237;47.030;15.396;2023-07-29T00:26:58;4.60;;;1.80;;
8399;SDS011;4237;47.030;15.396;2023-07-29T00:29:26;2.77;;;2.07;;
8399;SDS011;4237;47.030;15.396;2023-07-29T00:31:54;3.83;;;1.67;;
8399;SDS011;4237;47.030;15.396;2023-07-29T00:34:22;2.20;;;2.00;;
8399;SDS011;4237;47.030;15.396;2023-07-29T00:36:50;3.27;;;1.77;;
8399;SDS011;4237;47.030;15.396;2023-07-29T00:39:18;2.23;;;1.67;;
8399;SDS011;4237;47.030;15.396;2023-07-29T00:41:47;4.73;;;2.07;;
8399;SDS011;4237;47.030;15.396;2023-07-29T00:44:15;3.10;;;1.63;;
8399;SDS011;4237;47.030;15.396;2023-07-29T00:46:43;2.20;;;2.00;;
8399;SDS011;4237;47.030;15.396;2023-07-29T00:49:13;2.63;;;1.90;;
8399;SDS011;4237;47.030;15.396;2023-07-29T00:51:41;3.00;;;1.90;;
8399;SDS011;4237;47.030;15.396;2023-07-29T00:54:09;2.03;;;1.83;;
8399;SDS011;4237;47.030;15.396;2023-07-29T00:56:37;2.80;;;1.83;;
8399;SDS011;4237;47.030;15.396;2023-07-29T00:59:05;2.10;;;1.77;;
8399;SDS011;4237;47.030;15.396;2023-07-29T01:01:34;1.93;;;1.83;;
8399;SDS011;4237;47.030;15.396;2023-07-29T01:04:02;3.97;;;1.90;;
8399;SDS011;4237;47.030;15.396;2023-07-29T01:06:41;2.13;;;1.70;;
8399;SDS011;4237;47.030;15.396;2023-07-29T01:11:41;2.03;;;1.83;;
8399;SDS011;4237;47.030;15.396;2023-07-29T01:14:18;5.80;;;1.90;;
8399;SDS011;4237;47.030;15.396;2023-07-29T01:16:51;3.27;;;1.53;;
8399;SDS011;4237;47.030;15.396;2023-07-29T01:19:25;3.37;;;1.70;;
8399;SDS011;4237;47.030;15.396;2023-07-29T01:21:49;3.10;;;1.80;;
8399;SDS011;4237;47.030;15.396;2023-07-29T01:24:18;3.87;;;3.00;;
8399;SDS011;4237;47.030;15.396;2023-07-29T01:26:47;3.80;;;2.90;;
8399;SDS011;4237;47.030;15.396;2023-07-29T01:29:15;3.47;;;2.97;;
8399;SDS011;4237;47.030;15.396;2023-07-29T01:31:43;5.80;;;3.50;;
8399;SDS011;4237;47.030;15.396;2023-07-29T01:34:32;7.70;;;3.70;;
8399;SDS011;4237;47.030;15.396;2023-07-29T01:36:54;8.33;;;3.67;;
8399;SDS011;4237;47.030;15.396;2023-07-29T01:39:22;6.97;;;3.33;;
8399;SDS011;4237;47.030;15.396;2023-07-29T01:41:52;5.20;;;3.23;;
8399;SDS011;4237;47.030;15.396;2023-07-29T01:44:20;4.43;;;3.60;;
8399;SDS011;4237;47.030;15.396;2023-07-29T01:46:49;4.80;;;2.77;;
8399;SDS011;4237;47.030;15.396;2023-07-29T01:49:17;5.00;;;2.67;;
8399;SDS011;4237;47.030;15.396;2023-07-29T01:51:45;2.60;;;2.20;;
8399;SDS011;4237;47.030;15.396;2023-07-29T01:54:13;3.27;;;1.83;;
8399;SDS011;4237;47.030;15.396;2023-07-29T01:56:41;3.73;;;2.30;;
8399;SDS011;4237;47.030;15.396;2023-07-29T01:59:10;2.30;;;2.10;;
8399;SDS011;4237;47.030;15.396;2023-07-29T02:01:38;2.70;;;2.20;;
8399;SDS011;4237;47.030;15.396;2023-07-29T02:04:06;3.40;;;1.87;;
8399;SDS011;4237;47.030;15.396;2023-07-29T02:06:34;2.70;;;2.00;;
8399;SDS011;4237;47.030;15.396;2023-07-29T02:09:02;2.87;;;2.17;;
8399;SDS011;4237;47.030;15.396;2023-07-29T02:11:31;4.60;;;2.00;;
8399;SDS011;4237;47.030;15.396;2023-07-29T02:14:00;2.60;;;2.03;;
8399;SDS011;4237;47.030;15.396;2023-07-29T02:16:28;2.47;;;1.87;;
8399;SDS011;4237;47.030;15.396;2023-07-29T02:18:56;2.13;;;1.70;;
8399;SDS011;4237;47.030;15.396;2023-07-29T02:21:24;2.10;;;1.90;;
8399;SDS011;4237;47.030;15.396;2023-07-29T02:23:52;2.27;;;1.90;;
8399;SDS011;4237;47.030;15.396;2023-07-29T02:26:21;2.83;;;2.17;;
8399;SDS011;4237;47.030;15.396;2023-07-29T02:28:50;3.20;;;1.90;;
8399;SDS011;4237;47.030;15.396;2023-07-29T02:31:20;7.40;;;3.75;;
8399;SDS011;4237;47.030;15.396;2023-07-29T02:33:47;3.03;;;2.17;;
8399;SDS011;4237;47.030;15.396;2023-07-29T02:36:16;2.17;;;1.80;;
8399;SDS011;4237;47.030;15.396;2023-07-29T02:38:44;2.33;;;1.90;;
8399;SDS011;4237;47.030;15.396;2023-07-29T02:41:13;1.93;;;1.70;;
8399;SDS011;4237;47.030;15.396;2023-07-29T02:43:43;3.10;;;2.10;;
8399;SDS011;4237;47.030;15.396;2023-07-29T02:46:11;3.40;;;2.00;;
8399;SDS011;4237;47.030;15.396;2023-07-29T02:48:39;2.47;;;1.90;;
8399;SDS011;4237;47.030;15.396;2023-07-29T02:51:07;2.33;;;1.87;;
8399;SDS011;4237;47.030;15.396;2023-07-29T02:53:36;2.70;;;2.27;;
8399;SDS011;4237;47.030;15.396;2023-07-29T02:56:04;2.47;;;2.07;;
8399;SDS011;4237;47.030;15.396;2023-07-29T02:58:35;3.20;;;1.65;;
8399;SDS011;4237;47.030;15.396;2023-07-29T03:01:04;2.37;;;2.00;;
8399;SDS011;4237;47.030;15.396;2023-07-29T03:03:32;2.87;;;2.00;;
8399;SDS011;4237;47.030;15.396;2023-07-29T03:06:10;2.53;;;1.90;;
8399;SDS011;4237;47.030;15.396;2023-07-29T03:08:34;2.23;;;2.00;;
8399;SDS011;4237;47.030;15.396;2023-07-29T03:11:09;2.60;;;1.97;;
8399;SDS011;4237;47.030;15.396;2023-07-29T03:13:37;3.65;;;2.40;;
8399;SDS011;4237;47.030;15.396;2023-07-29T03:16:09;3.93;;;2.33;;
8399;SDS011;4237;47.030;15.396;2023-07-29T03:18:38;2.07;;;1.80;;
8399;SDS011;4237;47.030;15.396;2023-07-29T03:21:06;4.37;;;1.93;;
8399;SDS011;4237;47.030;15.396;2023-07-29T03:23:35;3.83;;;1.80;;
8399;SDS011;4237;47.030;15.396;2023-07-29T03:26:03;3.20;;;2.03;;
8399;SDS011;4237;47.030;15.396;2023-07-29T03:28:33;4.03;;;2.17;;
8399;SDS011;4237;47.030;15.396;2023-07-29T03:31:01;2.60;;;1.93;;
8399;SDS011;4237;47.030;15.396;2023-07-29T03:33:30;3.40;;;1.83;;
8399;SDS011;4237;47.030;15.396;2023-07-29T03:35:58;3.13;;;2.23;;
8399;SDS011;4237;47.030;15.396;2023-07-29T03:38:26;2.43;;;2.00;;
8399;SDS011;4237;47.030;15.396;2023-07-29T03:40:54;2.87;;;1.80;;
8399;SDS011;4237;47.030;15.396;2023-07-29T03:43:23;2.77;;;2.10;;
8399;SDS011;4237;47.030;15.396;2023-07-29T03:45:51;3.35;;;1.85;;
8399;SDS011;4237;47.030;15.396;2023-07-29T03:48:19;3.00;;;1.90;;
8399;SDS011;4237;47.030;15.396;2023-07-29T03:50:47;2.77;;;1.90;;
8399;SDS011;4237;47.030;15.396;2023-07-29T03:53:15;4.47;;;1.80;;
8399;SDS011;4237;47.030;15.396;2023-07-29T03:55:44;2.07;;;1.80;;
8399;SDS011;4237;47.030;15.396;2023-07-29T03:58:13;2.77;;;2.30;;
8399;SDS011;4237;47.030;15.396;2023-07-29T04:00:41;3.00;;;2.13;;
8399;SDS011;4237;47.030;15.396;2023-07-29T04:03:09;1.90;;;1.60;;
8399;SDS011;4237;47.030;15.396;2023-07-29T04:05:37;2.87;;;2.10;;
8399;SDS011;4237;47.030;15.396;2023-07-29T04:08:05;2.73;;;1.90;;
8399;SDS011;4237;47.030;15.396;2023-07-29T04:10:33;2.23;;;1.87;;
8399;SDS011;4237;47.030;15.396;2023-07-29T04:13:02;5.07;;;2.23;;
8399;SDS011;4237;47.030;15.396;2023-07-29T04:15:30;2.13;;;1.87;;
8399;SDS011;4237;47.030;15.396;2023-07-29T04:17:58;2.10;;;1.90;;
8399;SDS011;4237;47.030;15.396;2023-07-29T04:20:27;2.07;;;1.80;;
8399;SDS011;4237;47.030;15.396;2023-07-29T04:22:55;3.33;;;2.00;;
8399;SDS011;4237;47.030;15.396;2023-07-29T04:25:23;4.30;;;2.20;;
8399;SDS011;4237;47.030;15.396;2023-07-29T04:27:51;2.40;;;2.00;;
8399;SDS011;4237;47.030;15.396;2023-07-29T04:30:19;3.83;;;2.10;;
8399;SDS011;4237;47.030;15.396;2023-07-29T04:32:48;4.00;;;2.27;;
8399;SDS011;4237;47.030;15.396;2023-07-29T04:35:17;3.40;;;1.97;;
8399;SDS011;4237;47.030;15.396;2023-07-29T04:37:45;2.40;;;2.00;;
8399;SDS011;4237;47.030;15.396;2023-07-29T04:40:15;2.97;;;1.97;;
8399;SDS011;4237;47.030;15.396;2023-07-29T04:42:43;3.70;;;1.83;;
8399;SDS011;4237;47.030;15.396;2023-07-29T04:45:11;4.20;;;2.10;;
8399;SDS011;4237;47.030;15.396;2023-07-29T04:47:40;2.30;;;1.80;;
8399;SDS011;4237;47.030;15.396;2023-07-29T04:50:08;2.23;;;2.00;;
8399;SDS011;4237;47.030;15.396;2023-07-29T04:52:36;1.70;;;1.50;;
8399;SDS011;4237;47.030;15.396;2023-07-29T04:55:05;3.50;;;2.07;;
8399;SDS011;4237;47.030;15.396;2023-07-29T04:57:33;3.60;;;2.90;;
8399;SDS011;4237;47.030;15.396;2023-07-29T05:00:02;2.63;;;2.00;;
8399;SDS011;4237;47.030;15.396;2023-07-29T05:02:30;2.33;;;2.13;;
8399;SDS011;4237;47.030;15.396;2023-07-29T05:04:58;3.35;;;2.35;;
8399;SDS011;4237;47.030;15.396;2023-07-29T05:07:26;2.47;;;2.00;;
8399;SDS011;4237;47.030;15.396;2023-07-29T05:09:55;3.30;;;2.43;;
8399;SDS011;4237;47.030;15.396;2023-07-29T05:12:23;3.07;;;2.20;;
8399;SDS011;4237;47.030;15.396;2023-07-29T05:14:51;3.07;;;2.17;;
8399;SDS011;4237;47.030;15.396;2023-07-29T05:17:19;3.13;;;2.13;;
8399;SDS011;4237;47.030;15.396;2023-07-29T05:19:47;2.40;;;2.03;;
8399;SDS011;4237;47.030;15.396;2023-07-29T05:22:16;3.53;;;2.00;;
8399;SDS011;4237;47.030;15.396;2023-07-29T05:24:44;2.97;;;2.50;;
8399;SDS011;4237;47.030;15.396;2023-07-29T05:27:12;3.87;;;2.50;;
8399;SDS011;4237;47.030;15.396;2023-07-29T05:29:40;2.90;;;2.13;;
8399;SDS011;4237;47.030;15.396;2023-07-29T05:32:08;3.30;;;2.30;;
8399;SDS011;4237;47.030;15.396;2023-07-29T05:34:36;3.03;;;2.33;;
8399;SDS011;4237;47.030;15.396;2023-07-29T05:37:05;2.90;;;2.23;;
8399;SDS011;4237;47.030;15.396;2023-07-29T05:39:33;2.97;;;2.33;;
8399;SDS011;4237;47.030;15.396;2023-07-29T05:42:01;3.50;;;2.37;;
8399;SDS011;4237;47.030;15.396;2023-07-29T05:44:29;3.07;;;2.00;;
8399;SDS011;4237;47.030;15.396;2023-07-29T05:46:58;2.87;;;2.20;;
8399;SDS011;4237;47.030;15.396;2023-07-29T05:49:26;2.40;;;2.20;;
8399;SDS011;4237;47.030;15.396;2023-07-29T05:51:54;4.37;;;1.90;;
8399;SDS011;4237;47.030;15.396;2023-07-29T05:54:22;2.63;;;2.43;;
8399;SDS011;4237;47.030;15.396;2023-07-29T05:56:50;4.00;;;1.93;;
8399;SDS011;4237;47.030;15.396;2023-07-29T05:59:18;10.07;;;2.70;;
8399;SDS011;4237;47.030;15.396;2023-07-29T06:01:47;3.73;;;2.40;;
8399;SDS011;4237;47.030;15.396;2023-07-29T06:04:15;4.53;;;2.83;;
8399;SDS011;4237;47.030;15.396;2023-07-29T06:06:43;3.77;;;2.50;;
8399;SDS011;4237;47.030;15.396;2023-07-29T06:09:11;4.23;;;2.47;;
8399;SDS011;4237;47.030;15.396;2023-07-29T06:11:39;2.73;;;2.20;;
8399;SDS011;4237;47.030;15.396;2023-07-29T06:14:07;3.50;;;2.30;;
8399;SDS011;4237;47.030;15.396;2023-07-29T06:16:36;3.15;;;2.30;;
8399;SDS011;4237;47.030;15.396;2023-07-29T06:19:04;5.20;;;2.30;;
8399;SDS011;4237;47.030;15.396;2023-07-29T06:21:32;3.25;;;2.30;;
8399;SDS011;4237;47.030;15.396;2023-07-29T06:24:00;2.03;;;1.70;;
8399;SDS011;4237;47.030;15.396;2023-07-29T06:26:29;2.83;;;1.83;;
8399;SDS011;4237;47.030;15.396;2023-07-29T06:28:57;4.40;;;2.23;;
8399;SDS011;4237;47.030;15.396;2023-07-29T06:31:25;4.30;;;1.90;;
8399;SDS011;4237;47.030;15.396;2023-07-29T06:33:53;5.07;;;1.87;;
8399;SDS011;4237;47.030;15.396;2023-07-29T06:36:22;3.20;;;2.23;;
8399;SDS011;4237;47.030;15.396;2023-07-29T06:38:50;3.20;;;2.27;;
8399;SDS011;4237;47.030;15.396;2023-07-29T06:41:18;3.80;;;2.13;;
8399;SDS011;4237;47.030;15.396;2023-07-29T06:43:46;4.33;;;2.10;;
8399;SDS011;4237;47.030;15.396;2023-07-29T06:46:14;3.70;;;2.33;;
8399;SDS011;4237;47.030;15.396;2023-07-29T06:48:42;3.13;;;2.17;;
8399;SDS011;4237;47.030;15.396;2023-07-29T06:51:11;2.03;;;1.83;;
8399;SDS011;4237;47.030;15.396;2023-07-29T06:53:39;2.70;;;1.90;;
8399;SDS011;4237;47.030;15.396;2023-07-29T06:56:07;3.73;;;1.70;;
8399;SDS011;4237;47.030;15.396;2023-07-29T06:58:35;1.90;;;1.67;;
8399;SDS011;4237;47.030;15.396;2023-07-29T07:01:04;4.37;;;2.00;;
8399;SDS011;4237;47.030;15.396;2023-07-29T07:03:32;4.37;;;1.80;;
8399;SDS011;4237;47.030;15.396;2023-07-29T07:06:00;4.50;;;1.97;;
8399;SDS011;4237;47.030;15.396;2023-07-29T07:08:29;2.57;;;1.97;;
8399;SDS011;4237;47.030;15.396;2023-07-29T07:10:59;4.23;;;1.87;;
8399;SDS011;4237;47.030;15.396;2023-07-29T07:13:31;6.23;;;2.27;;
8399;SDS011;4237;47.030;15.396;2023-07-29T07:16:00;2.90;;;2.00;;
8399;SDS011;4237;47.030;15.396;2023-07-29T07:18:34;4.37;;;1.80;;
8399;SDS011;4237;47.030;15.396;2023-07-29T07:21:02;3.83;;;1.95;;
8399;SDS011;4237;47.030;15.396;2023-07-29T07:23:31;3.58;;;1.98;;
8399;SDS011;4237;47.030;15.396;2023-07-29T07:26:00;3.08;;;2.15;;
8399;SDS011;4237;47.030;15.396;2023-07-29T07:28:29;2.55;;;1.75;;
8399;SDS011;4237;47.030;15.396;2023-07-29T07:31:00;5.40;;;1.87;;
8399;SDS011;4237;47.030;15.396;2023-07-29T07:33:29;2.62;;;1.67;;
8399;SDS011;4237;47.030;15.396;2023-07-29T07:35:57;3.60;;;1.70;;
8399;SDS011;4237;47.030;15.396;2023-07-29T07:38:27;2.37;;;2.00;;
8399;SDS011;4237;47.030;15.396;2023-07-29T07:40:56;2.10;;;1.57;;
8399;SDS011;4237;47.030;15.396;2023-07-29T07:43:26;2.67;;;1.67;;
8399;SDS011;4237;47.030;15.396;2023-07-29T07:45:59;5.00;;;1.47;;
8399;SDS011;4237;47.030;15.396;2023-07-29T07:48:29;2.10;;;1.57;;
8399;SDS011;4237;47.030;15.396;2023-07-29T07:51:12;2.72;;;1.55;;
8399;SDS011;4237;47.030;15.396;2023-07-29T07:53:33;2.87;;;1.72;;
8399;SDS011;4237;47.030;15.396;2023-07-29T07:56:01;1.87;;;1.62;;
8399;SDS011;4237;47.030;15.396;2023-07-29T07:58:30;3.17;;;2.00;;
8399;SDS011;4237;47.030;15.396;2023-07-29T08:01:03;3.25;;;1.52;;
8399;SDS011;4237;47.030;15.396;2023-07-29T08:03:32;1.40;;;1.30;;
8399;SDS011;4237;47.030;15.396;2023-07-29T08:06:01;1.47;;;1.37;;
8399;SDS011;4237;47.030;15.396;2023-07-29T08:08:30;1.77;;;1.47;;
8399;SDS011;4237;47.030;15.396;2023-07-29T08:11:01;2.02;;;1.40;;
8399;SDS011;4237;47.030;15.396;2023-07-29T08:13:36;1.52;;;1.42;;
8399;SDS011;4237;47.030;15.396;2023-07-29T08:16:04;2.40;;;1.60;;
8399;SDS011;4237;47.030;15.396;2023-07-29T08:18:34;3.35;;;1.70;;
8399;SDS011;4237;47.030;15.396;2023-07-29T08:21:02;1.67;;;1.57;;
8399;SDS011;4237;47.030;15.396;2023-07-29T08:23:31;1.77;;;1.67;;
8399;SDS011;4237;47.030;15.396;2023-07-29T08:26:00;1.42;;;1.32;;
8399;SDS011;4237;47.030;15.396;2023-07-29T08:28:30;1.90;;;1.60;;
8399;SDS011;4237;47.030;15.396;2023-07-29T08:30:58;1.82;;;1.70;;
8399;SDS011;4237;47.030;15.396;2023-07-29T08:33:27;1.50;;;1.40;;
8399;SDS011;4237;47.030;15.396;2023-07-29T08:35:55;2.00;;;1.72;;
8399;SDS011;4237;47.030;15.396;2023-07-29T08:38:24;1.92;;;1.57;;
8399;SDS011;4237;47.030;15.396;2023-07-29T08:43:29;2.10;;;1.90;;
8399;SDS011;4237;47.030;15.396;2023-07-29T08:46:00;3.08;;;1.90;;
8399;SDS011;4237;47.030;15.396;2023-07-29T08:48:40;2.72;;;1.57;;
8399;SDS011;4237;47.030;15.396;2023-07-29T08:51:10;2.20;;;1.77;;
8399;SDS011;4237;47.030;15.396;2023-07-29T08:53:39;4.80;;;2.12;;
8399;SDS011;4237;47.030;15.396;2023-07-29T08:56:07;1.82;;;1.72;;
8399;SDS011;4237;47.030;15.396;2023-07-29T08:58:35;3.58;;;1.90;;
8399;SDS011;4237;47.030;15.396;2023-07-29T09:01:04;2.30;;;1.50;;
8399;SDS011;4237;47.030;15.396;2023-07-29T09:03:33;2.92;;;1.70;;
8399;SDS011;4237;47.030;15.396;2023-07-29T09:06:01;2.22;;;2.00;;
8399;SDS011;4237;47.030;15.396;2023-07-29T09:08:31;2.35;;;2.08;;
8399;SDS011;4237;47.030;15.396;2023-07-29T09:11:00;1.57;;;1.47;;
8399;SDS011;4237;47.030;15.396;2023-07-29T09:13:28;2.22;;;1.42;;
8399;SDS011;4237;47.030;15.396;2023-07-29T09:15:57;2.90;;;1.60;;
8399;SDS011;4237;47.030;15.396;2023-07-29T09:18:26;3.47;;;1.45;;
8399;SDS011;4237;47.030;15.396;2023-07-29T09:20:55;2.95;;;1.40;;
8399;SDS011;4237;47.030;15.396;2023-07-29T09:23:25;2.25;;;1.45;;
8399;SDS011;4237;47.030;15.396;2023-07-29T09:26:01;2.37;;;1.50;;
8399;SDS011;4237;47.030;15.396;2023-07-29T09:28:34;1.80;;;1.40;;
8399;SDS011;4237;47.030;15.396;2023-07-29T09:30:59;1.95;;;1.65;;
8399;SDS011;4237;47.030;15.396;2023-07-29T09:33:34;1.85;;;1.70;;
8399;SDS011;4237;47.030;15.396;2023-07-29T09:36:09;1.77;;;1.50;;
8399;SDS011;4237;47.030;15.396;2023-07-29T09:38:38;1.55;;;1.45;;
8399;SDS011;4237;47.030;15.396;2023-07-29T09:41:06;2.00;;;1.70;;
8399;SDS011;4237;47.030;15.396;2023-07-29T09:43:34;1.77;;;1.67;;
8399;SDS011;4237;47.030;15.396;2023-07-29T09:46:04;2.10;;;1.90;;
8399;SDS011;4237;47.030;15.396;2023-07-29T09:48:35;4.35;;;2.47;;
8399;SDS011;4237;47.030;15.396;2023-07-29T09:51:09;2.10;;;1.62;;
8399;SDS011;4237;47.030;15.396;2023-07-29T09:53:44;2.60;;;1.60;;
8399;SDS011;4237;47.030;15.396;2023-07-29T09:56:14;2.27;;;1.40;;
8399;SDS011;4237;47.030;15.396;2023-07-29T09:58:46;1.17;;;1.10;;
8399;SDS011;4237;47.030;15.396;2023-07-29T10:01:16;1.80;;;1.70;;
8399;SDS011;4237;47.030;15.396;2023-07-29T10:03:44;1.75;;;1.65;;
8399;SDS011;4237;47.030;15.396;2023-07-29T10:06:12;1.37;;;1.27;;
8399;SDS011;4237;47.030;15.396;2023-07-29T10:08:42;1.40;;;1.30;;
8399;SDS011;4237;47.030;15.396;2023-07-29T10:11:11;1.40;;;1.30;;
8399;SDS011;4237;47.030;15.396;2023-07-29T10:13:39;1.87;;;1.22;;
8399;SDS011;4237;47.030;15.396;2023-07-29T10:16:07;2.27;;;1.45;;
8399;SDS011;4237;47.030;15.396;2023-07-29T10:18:36;2.83;;;1.37;;
8399;SDS011;4237;47.030;15.396;2023-07-29T10:21:05;1.40;;;1.30;;
8399;SDS011;4237;47.030;15.396;2023-07-29T10:23:34;2.15;;;1.62;;
8399;SDS011;4237;47.030;15.396;2023-07-29T10:26:04;1.50;;;1.40;;
8399;SDS011;4237;47.030;15.396;2023-07-29T10:28:33;1.98;;;1.60;;
8399;SDS011;4237;47.030;15.396;2023-07-29T10:31:03;3.10;;;1.60;;
8399;SDS011;4237;47.030;15.396;2023-07-29T10:33:32;1.70;;;1.60;;
8399;SDS011;4237;47.030;15.396;2023-07-29T10:36:01;2.00;;;1.70;;
8399;SDS011;4237;47.030;15.396;2023-07-29T10:38:30;2.15;;;1.60;;
8399;SDS011;4237;47.030;15.396;2023-07-29T10:40:58;2.10;;;1.60;;
8399;SDS011;4237;47.030;15.396;2023-07-29T10:43:31;1.60;;;1.47;;
8399;SDS011;4237;47.030;15.396;2023-07-29T10:45:57;3.35;;;1.70;;
8399;SDS011;4237;47.030;15.396;2023-07-29T10:51:24;3.67;;;1.40;;
8399;SDS011;4237;47.030;15.396;2023-07-29T10:53:57;2.65;;;1.60;;
8399;SDS011;4237;47.030;15.396;2023-07-29T10:56:29;1.82;;;1.72;;
8399;SDS011;4237;47.030;15.396;2023-07-29T10:58:59;2.00;;;1.80;;
8399;SDS011;4237;47.030;15.396;2023-07-29T11:01:32;1.52;;;1.42;;
8399;SDS011;4237;47.030;15.396;2023-07-29T11:10:31;2.52;;;1.65;;
8399;SDS011;4237;47.030;15.396;2023-07-29T11:14:57;2.40;;;1.50;;
8399;SDS011;4237;47.030;15.396;2023-07-29T11:17:25;1.60;;;1.50;;
8399;SDS011;4237;47.030;15.396;2023-07-29T11:19:54;2.55;;;1.85;;
8399;SDS011;4237;47.030;15.396;2023-07-29T11:22:23;2.10;;;1.67;;
8399;SDS011;4237;47.030;15.396;2023-07-29T11:24:52;1.57;;;1.45;;
8399;SDS011;4237;47.030;15.396;2023-07-29T11:27:20;1.62;;;1.35;;
8399;SDS011;4237;47.030;15.396;2023-07-29T11:29:48;1.57;;;1.47;;
8399;SDS011;4237;47.030;15.396;2023-07-29T11:32:16;2.37;;;1.60;;
8399;SDS011;4237;47.030;15.396;2023-07-29T11:34:45;1.70;;;1.60;;
8399;SDS011;4237;47.030;15.396;2023-07-29T11:37:13;1.50;;;1.40;;
8399;SDS011;4237;47.030;15.396;2023-07-29T11:39:41;1.42;;;1.32;;
8399;SDS011;4237;47.030;15.396;2023-07-29T11:42:13;1.95;;;1.67;;
8399;SDS011;4237;47.030;15.396;2023-07-29T11:44:41;2.58;;;1.45;;
8399;SDS011;4237;47.030;15.396;2023-07-29T11:47:10;1.70;;;1.52;;
8399;SDS011;4237;47.030;15.396;2023-07-29T11:49:40;2.02;;;1.35;;
8399;SDS011;4237;47.030;15.396;2023-07-29T11:52:08;2.33;;;2.12;;
8399;SDS011;4237;47.030;15.396;2023-07-29T11:54:37;2.67;;;1.85;;
8399;SDS011;4237;47.030;15.396;2023-07-29T11:57:06;1.65;;;1.50;;
8399;SDS011;4237;47.030;15.396;2023-07-29T11:59:35;1.90;;;1.40;;
8399;SDS011;4237;47.030;15.396;2023-07-29T12:02:05;2.30;;;1.85;;
8399;SDS011;4237;47.030;15.396;2023-07-29T12:04:34;3.95;;;1.80;;
8399;SDS011;4237;47.030;15.396;2023-07-29T12:07:02;1.98;;;1.45;;
8399;SDS011;4237;47.030;15.396;2023-07-29T12:09:30;2.12;;;1.85;;
8399;SDS011;4237;47.030;15.396;2023-07-29T12:11:59;2.20;;;1.70;;
8399;SDS011;4237;47.030;15.396;2023-07-29T12:14:28;1.65;;;1.37;;
8399;SDS011;4237;47.030;15.396;2023-07-29T12:16:56;4.58;;;2.10;;
8399;SDS011;4237;47.030;15.396;2023-07-29T12:19:31;2.00;;;1.60;;
8399;SDS011;4237;47.030;15.396;2023-07-29T12:21:56;1.57;;;1.40;;
8399;SDS011;4237;47.030;15.396;2023-07-29T12:24:24;2.58;;;1.52;;
8399;SDS011;4237;47.030;15.396;2023-07-29T12:26:52;1.60;;;1.50;;
8399;SDS011;4237;47.030;15.396;2023-07-29T12:29:20;2.02;;;1.82;;
8399;SDS011;4237;47.030;15.396;2023-07-29T12:31:49;1.72;;;1.30;;
8399;SDS011;4237;47.030;15.396;2023-07-29T12:34:19;2.15;;;1.70;;
8399;SDS011;4237;47.030;15.396;2023-07-29T12:36:48;1.62;;;1.27;;
8399;SDS011;4237;47.030;15.396;2023-07-29T12:39:17;2.00;;;1.80;;
8399;SDS011;4237;47.030;15.396;2023-07-29T12:41:45;20.50;;;2.20;;
8399;SDS011;4237;47.030;15.396;2023-07-29T12:44:14;3.67;;;1.90;;
8399;SDS011;4237;47.030;15.396;2023-07-29T12:46:42;2.77;;;1.70;;
8399;SDS011;4237;47.030;15.396;2023-07-29T12:49:11;2.00;;;1.80;;
8399;SDS011;4237;47.030;15.396;2023-07-29T12:51:39;3.60;;;1.77;;
8399;SDS011;4237;47.030;15.396;2023-07-29T12:54:07;2.45;;;1.75;;
8399;SDS011;4237;47.030;15.396;2023-07-29T12:56:35;4.28;;;1.70;;
8399;SDS011;4237;47.030;15.396;2023-07-29T12:59:04;2.85;;;1.77;;
8399;SDS011;4237;47.030;15.396;2023-07-29T13:01:32;1.98;;;1.77;;
8399;SDS011;4237;47.030;15.396;2023-07-29T13:04:01;1.90;;;1.72;;
8399;SDS011;4237;47.030;15.396;2023-07-29T13:06:29;1.52;;;1.42;;
8399;SDS011;4237;47.030;15.396;2023-07-29T13:08:58;1.70;;;1.60;;
8399;SDS011;4237;47.030;15.396;2023-07-29T13:11:26;2.15;;;1.57;;
8399;SDS011;4237;47.030;15.396;2023-07-29T13:13:54;2.05;;;1.72;;
8399;SDS011;4237;47.030;15.396;2023-07-29T13:16:22;1.95;;;1.70;;
8399;SDS011;4237;47.030;15.396;2023-07-29T13:18:50;1.62;;;1.52;;
8399;SDS011;4237;47.030;15.396;2023-07-29T13:21:19;2.20;;;1.55;;
8399;SDS011;4237;47.030;15.396;2023-07-29T13:23:47;1.82;;;1.62;;
8399;SDS011;4237;47.030;15.396;2023-07-29T13:26:15;2.17;;;1.60;;
8399;SDS011;4237;47.030;15.396;2023-07-29T13:28:43;1.77;;;1.57;;
8399;SDS011;4237;47.030;15.396;2023-07-29T13:31:11;1.57;;;1.47;;
8399;SDS011;4237;47.030;15.396;2023-07-29T13:33:40;3.08;;;1.55;;
8399;SDS011;4237;47.030;15.396;2023-07-29T13:36:08;1.45;;;1.35;;
8399;SDS011;4237;47.030;15.396;2023-07-29T13:38:36;2.77;;;1.47;;
8399;SDS011;4237;47.030;15.396;2023-07-29T13:41:05;2.83;;;1.50;;
8399;SDS011;4237;47.030;15.396;2023-07-29T13:43:33;1.42;;;1.20;;
8399;SDS011;4237;47.030;15.396;2023-07-29T13:46:01;2.02;;;1.50;;
8399;SDS011;4237;47.030;15.396;2023-07-29T13:48:30;1.50;;;1.10;;
8399;SDS011;4237;47.030;15.396;2023-07-29T13:50:59;1.25;;;1.02;;
8399;SDS011;4237;47.030;15.396;2023-07-29T13:53:28;1.37;;;1.10;;
8399;SDS011;4237;47.030;15.396;2023-07-29T13:55:56;1.20;;;0.90;;
8399;SDS011;4237;47.030;15.396;2023-07-29T13:58:24;0.88;;;0.88;;
8399;SDS011;4237;47.030;15.396;2023-07-29T14:00:53;1.00;;;1.00;;
8399;SDS011;4237;47.030;15.396;2023-07-29T14:03:21;1.40;;;1.30;;
8399;SDS011;4237;47.030;15.396;2023-07-29T14:05:49;1.40;;;1.30;;
8399;SDS011;4237;47.030;15.396;2023-07-29T14:08:17;1.27;;;1.17;;
8399;SDS011;4237;47.030;15.396;2023-07-29T14:10:46;2.60;;;1.65;;
8399;SDS011;4237;47.030;15.396;2023-07-29T14:13:14;5.25;;;1.52;;
8399;SDS011;4237;47.030;15.396;2023-07-29T14:15:42;1.42;;;1.32;;
8399;SDS011;4237;47.030;15.396;2023-07-29T14:18:10;1.62;;;1.52;;
8399;SDS011;4237;47.030;15.396;2023-07-29T14:20:38;1.32;;;1.22;;
8399;SDS011;4237;47.030;15.396;2023-07-29T14:23:07;1.70;;;1.60;;
8399;SDS011;4237;47.030;15.396;2023-07-29T14:25:35;1.60;;;1.47;;
8399;SDS011;4237;47.030;15.396;2023-07-29T14:28:03;2.00;;;1.47;;
8399;SDS011;4237;47.030;15.396;2023-07-29T14:30:31;1.87;;;1.72;;
8399;SDS011;4237;47.030;15.396;2023-07-29T14:32:59;1.72;;;1.40;;
8399;SDS011;4237;47.030;15.396;2023-07-29T14:35:28;1.55;;;1.40;;
8399;SDS011;4237;47.030;15.396;2023-07-29T14:37:56;1.50;;;1.40;;
8399;SDS011;4237;47.030;15.396;2023-07-29T14:40:24;1.75;;;1.65;;
8399;SDS011;4237;47.030;15.396;2023-07-29T14:42:52;1.92;;;1.50;;
8399;SDS011;4237;47.030;15.396;2023-07-29T14:45:20;1.87;;;1.60;;
8399;SDS011;4237;47.030;15.396;2023-07-29T14:47:48;2.08;;;1.67;;
8399;SDS011;4237;47.030;15.396;2023-07-29T14:50:16;1.37;;;1.02;;
8399;SDS011;4237;47.030;15.396;2023-07-29T14:52:45;1.85;;;1.32;;
8399;SDS011;4237;47.030;15.396;2023-07-29T14:55:13;2.08;;;1.52;;
8399;SDS011;4237;47.030;15.396;2023-07-29T14:57:41;1.65;;;1.40;;
8399;SDS011;4237;47.030;15.396;2023-07-29T15:00:10;2.17;;;1.60;;
8399;SDS011;4237;47.030;15.396;2023-07-29T15:02:39;1.40;;;1.30;;
8399;SDS011;4237;47.030;15.396;2023-07-29T15:05:08;1.90;;;1.60;;
8399;SDS011;4237;47.030;15.396;2023-07-29T15:07:36;1.82;;;1.70;;
8399;SDS011;4237;47.030;15.396;2023-07-29T15:10:04;1.65;;;1.50;;
8399;SDS011;4237;47.030;15.396;2023-07-29T15:12:33;1.80;;;1.60;;
8399;SDS011;4237;47.030;15.396;2023-07-29T15:15:01;1.87;;;1.50;;
8399;SDS011;4237;47.030;15.396;2023-07-29T15:17:29;2.27;;;1.80;;
8399;SDS011;4237;47.030;15.396;2023-07-29T15:19:57;1.67;;;1.57;;
8399;SDS011;4237;47.030;15.396;2023-07-29T15:22:25;1.50;;;1.40;;
8399;SDS011;4237;47.030;15.396;2023-07-29T15:24:54;3.08;;;1.90;;
8399;SDS011;4237;47.030;15.396;2023-07-29T15:27:22;1.87;;;1.57;;